Disclaimer

Please do not use the information listed here in-flight or in-navigation, as they are not provided to us by the airports but are provided by volunteers, so they might be outdated.

Search


Regions


Airport information page

Radio informations:
INFO - 118.4 MHz
LANGEN RADAR - 127.5 MHz
COLEMAN APP - 130.5 MHz

Airport informations:
Latitude: 49° 28' 21.74" N
Longitude: 008° 30' 51.35" E
Elevation: 309 feet - 94 meters
Operating hours: Remarks
Operating agency: Civil government, landing fees and diplomatic clearance may be required
Timezone: UTC+1(+2DT) - Last Sunday in March to last Sunday in October
Fuel: Jet A1, without icing nhibitor.

100/130 MIL Spec, low lead, aviation gasoline (BLUE)

Runway information:
09/27 - 3497 x 82 feet< - >1066 x 25 meters
09L/27R - 2297 x 98 feet< - >700 x 30 meters

Recent METARs:
EDFM 211820Z 08005KT 9999 OVC018 04/00 Q1018
EDFM 211850Z 10002KT 9999 OVC019 04/M00 Q1018
EDFM 211920Z 00000KT 9999 OVC019 04/00 Q1018

Airport on the map: